Time;durP1;ratioP1;P1;durP2;ratioP2;P2;SDS_P1;SDS_P2;PMS_P1;PMS_P2;Temp;Humidity;BMP_temperature;BMP_pressure;BME280_temperature;BME280_humidity;BME280_pressure;Samples;Min_cycle;Max_cycle;Signal;HPM_P1;HPM_P2
2022/09/06 00:00:54;;;;;;;3.65;2.13;;;;;;;13.97;72.83;94143.06;5049359;28;20418;-41
2022/09/06 00:03:19;;;;;;;2.10;1.90;;;;;;;13.87;73.24;94144.91;5049190;28;20028;-45
2022/09/06 00:05:44;;;;;;;2.40;2.20;;;;;;;13.90;73.27;94143.06;5049470;28;20040;-42
2022/09/06 00:08:10;;;;;;;2.20;1.95;;;;;;;13.82;73.43;94134.72;5049079;28;20033;-40
2022/09/06 00:10:36;;;;;;;2.08;1.77;;;;;;;13.77;73.55;94137.69;5049512;28;20021;-39
2022/09/06 00:13:04;;;;;;;2.03;1.83;;;;;;;13.73;73.60;94140.81;5049153;28;20394;-39
2022/09/06 00:15:30;;;;;;;2.22;1.70;;;;;;;13.65;74.05;94143.59;5048967;28;20025;-39
2022/09/06 00:18:03;;;;;;;2.80;1.83;;;;;;;13.69;73.57;94140.44;5049425;28;20025;-40
2022/09/06 00:20:29;;;;;;;1.85;1.65;;;;;;;13.61;73.77;94145.97;5049142;28;20664;-40
2022/09/06 00:23:03;;;;;;;1.98;1.88;;;;;;;13.54;74.00;94143.94;5049491;28;20028;-39
2022/09/06 00:25:29;;;;;;;1.65;1.55;;;;;;;13.59;73.90;94136.72;5049109;28;20112;-39
2022/09/06 00:28:01;;;;;;;2.03;1.73;;;;;;;13.68;74.06;94141.75;5049167;28;20052;-39
2022/09/06 00:30:27;;;;;;;1.88;1.33;;;;;;;13.69;73.62;94143.22;5049165;28;20128;-40
2022/09/06 00:32:53;;;;;;;1.58;1.48;;;;;;;13.72;72.17;94141.38;5047629;28;20033;-40
2022/09/06 00:35:19;;;;;;;2.35;2.00;;;;;;;13.69;71.79;94143.22;5048645;27;20081;-40
2022/09/06 00:37:45;;;;;;;3.50;1.63;;;;;;;13.68;71.31;94142.50;5048654;28;20037;-39
2022/09/06 00:40:12;;;;;;;1.55;1.30;;;;;;;13.55;72.01;94134.31;5048938;28;20032;-40
2022/09/06 00:42:37;;;;;;;1.70;1.60;;;;;;;13.54;72.28;94143.94;5048634;28;20035;-39
2022/09/06 00:45:03;;;;;;;1.60;1.40;;;;;;;13.46;72.66;94132.06;5048598;28;20028;-40
2022/09/06 00:47:29;;;;;;;2.63;1.85;;;;;;;13.35;73.51;94135.19;5047352;28;20021;-38
2022/09/06 00:49:56;;;;;;;2.70;1.50;;;;;;;13.50;73.02;94131.69;5048873;28;20036;-38
2022/09/06 00:52:22;;;;;;;2.22;1.95;;;;;;;13.45;72.89;94133.34;5047695;28;20077;-38
2022/09/06 00:54:49;;;;;;;1.85;1.67;;;;;;;13.45;72.63;94129.84;5047504;28;20033;-38
2022/09/06 00:57:15;;;;;;;2.33;1.67;;;;;;;13.52;73.33;94131.88;5030696;28;20492;-38
2022/09/06 00:59:41;;;;;;;1.52;1.33;;;;;;;13.34;73.19;94133.69;5048724;28;20060;-38
2022/09/06 01:02:08;;;;;;;2.00;1.80;;;;;;;13.36;72.62;94124.84;5029540;28;20085;-39
2022/09/06 01:04:35;;;;;;;2.30;2.05;;;;;;;13.22;73.34;94132.56;5028318;28;20502;-38
2022/09/06 01:07:03;;;;;;;1.60;1.50;;;;;;;13.19;73.32;94133.66;5027096;28;20074;-38
2022/09/06 01:09:31;;;;;;;2.28;1.83;;;;;;;13.22;72.82;94129.03;5028220;28;20030;-38
2022/09/06 01:12:02;;;;;;;2.40;1.80;;;;;;;13.18;73.66;94132.19;5027716;28;20033;-38
2022/09/06 01:14:46;;;;;;;3.15;1.52;;;;;;;13.15;73.59;94133.25;5028183;28;20513;-38
2022/09/06 01:17:23;;;;;;;1.88;1.45;;;;;;;13.03;74.08;94132.09;5028506;28;20021;-39
2022/09/06 01:20:13;;;;;;;2.10;1.67;;;;;;;13.08;73.65;94133.97;5028137;28;20032;-39
2022/09/06 01:22:53;;;;;;;2.35;1.55;;;;;;;13.09;73.46;94124.38;5027324;28;20029;-39
2022/09/06 01:25:27;;;;;;;1.48;1.38;;;;;;;13.12;73.39;94125.31;5027219;28;20498;-39
2022/09/06 01:28:13;;;;;;;1.80;1.50;;;;;;;13.03;73.37;94118.22;5028401;28;20034;-38
2022/09/06 01:30:44;;;;;;;1.77;1.40;;;;;;;12.84;74.52;94126.09;5028207;28;20036;-39
2022/09/06 01:33:21;;;;;;;1.90;1.60;;;;;;;12.99;74.08;94120.63;5027104;28;20033;-39
2022/09/06 01:35:54;;;;;;;1.73;1.50;;;;;;;12.98;73.52;94118.38;5039767;28;20032;-39
2022/09/06 01:38:19;;;;;;;1.98;1.80;;;;;;;12.84;74.05;94115.00;5047697;28;20509;-39
2022/09/06 01:40:45;;;;;;;1.48;1.38;;;;;;;12.83;74.38;94102.44;5047749;28;20074;-40
2022/09/06 01:43:13;;;;;;;2.13;1.88;;;;;;;12.84;74.05;94106.69;5047894;28;20035;-39
2022/09/06 01:46:02;;;;;;;1.63;1.52;;;;;;;12.85;74.12;94103.38;5046424;28;20520;-39
2022/09/06 01:48:46;;;;;;;1.65;1.55;;;;;;;12.76;74.26;94112.19;5047612;28;20041;-38
2022/09/06 01:51:41;;;;;;;1.40;1.20;;;;;;;12.81;74.08;94116.09;5047880;28;20040;-38
2022/09/06 01:54:32;;;;;;;1.77;1.17;;;;;;;12.63;74.25;94117.84;5030106;28;20036;-38
2022/09/06 01:57:34;;;;;;;1.55;1.45;;;;;;;12.82;74.01;94118.31;5046675;28;20056;-39
2022/09/06 02:00:14;;;;;;;2.75;1.23;;;;;;;12.75;73.77;94115.53;5047727;28;20060;-39
2022/09/06 02:03:13;;;;;;;1.80;1.70;;;;;;;12.73;73.96;94104.25;5046070;28;20029;-39
2022/09/06 02:05:44;;;;;;;1.67;1.58;;;;;;;12.65;74.18;94106.97;5047412;28;20032;-39
2022/09/06 02:08:19;;;;;;;2.78;1.70;;;;;;;12.61;74.23;94101.03;5047684;28;20028;-39
2022/09/06 02:10:54;;;;;;;1.30;1.17;;;;;;;12.51;74.26;94100.06;5045265;28;20029;-40
2022/09/06 02:13:21;;;;;;;1.85;1.63;;;;;;;12.60;72.84;94101.59;5046036;28;20421;-39
2022/09/06 02:15:55;;;;;;;1.30;1.20;;;;;;;12.57;72.86;94097.88;5046508;28;20107;-40
2022/09/06 02:18:25;;;;;;;1.60;1.50;;;;;;;12.50;73.25;94103.38;5047379;28;20029;-43
2022/09/06 02:20:53;;;;;;;1.85;1.70;;;;;;;12.52;72.85;94103.56;5046392;28;20120;-42
2022/09/06 02:23:22;;;;;;;1.10;1.10;;;;;;;12.44;72.40;94095.22;5044842;28;20521;-43
2022/09/06 02:26:13;;;;;;;1.40;1.05;;;;;;;12.38;72.62;94094.66;5026053;28;20033;-43
2022/09/06 02:28:38;;;;;;;13.88;12.93;;;;;;;12.43;72.90;94093.00;5026535;28;20036;-42
2022/09/06 02:31:29;;;;;;;2.78;1.58;;;;;;;12.49;72.37;94099.13;5027673;28;20406;-43
2022/09/06 02:33:55;;;;;;;2.53;1.60;;;;;;;12.44;73.13;94095.22;5026509;28;20108;-43
2022/09/06 02:36:21;;;;;;;1.13;1.05;;;;;;;12.38;72.75;94100.19;5045061;27;20048;-43
2022/09/06 02:38:46;;;;;;;1.70;1.52;;;;;;;12.26;73.21;94101.75;5046254;28;20033;-42
2022/09/06 02:41:14;;;;;;;1.73;1.45;;;;;;;12.13;73.59;94108.13;5046987;28;20036;-43
2022/09/06 02:43:42;;;;;;;1.40;1.30;;;;;;;12.24;73.10;94106.34;5046091;28;20409;-42
2022/09/06 02:46:07;;;;;;;1.33;1.23;;;;;;;12.19;73.24;94110.78;5045790;28;20021;-42
2022/09/06 02:48:33;;;;;;;1.70;1.55;;;;;;;12.25;72.98;94099.53;5047219;28;20120;-43
2022/09/06 02:51:03;;;;;;;7.20;1.52;;;;;;;12.22;73.65;94095.06;5047224;28;20047;-42
2022/09/06 02:53:28;;;;;;;1.67;1.55;;;;;;;12.10;73.56;94100.94;5047222;28;20028;-42
2022/09/06 02:55:55;;;;;;;2.17;1.98;;;;;;;12.10;73.24;94103.69;5046166;28;20482;-43
2022/09/06 02:58:21;;;;;;;1.75;1.30;;;;;;;12.11;73.32;94099.63;5026659;28;20033;-44
2022/09/06 03:00:46;;;;;;;2.42;1.63;;;;;;;12.03;73.97;94109.16;5026957;28;20043;-42
2022/09/06 03:03:12;;;;;;;1.40;1.30;;;;;;;12.04;73.36;94107.88;5026813;28;20110;-42
2022/09/06 03:05:37;;;;;;;1.40;1.30;;;;;;;11.96;73.74;94102.28;5027130;28;20033;-41
2022/09/06 03:08:03;;;;;;;3.92;2.33;;;;;;;11.93;73.60;94106.13;5032822;28;20029;-42
2022/09/06 03:10:28;;;;;;;1.70;1.13;;;;;;;11.81;73.42;94104.19;5026846;28;20033;-39
2022/09/06 03:12:54;;;;;;;1.40;1.30;;;;;;;11.85;72.71;94101.81;5026974;28;20021;-40
2022/09/06 03:15:19;;;;;;;1.83;1.20;;;;;;;11.81;72.46;94102.16;5026667;28;20183;-39
2022/09/06 03:17:45;;;;;;;1.67;1.23;;;;;;;11.86;72.30;94106.84;5026801;28;20022;-39
2022/09/06 03:20:11;;;;;;;1.38;1.27;;;;;;;11.82;72.39;94103.66;5026618;28;20025;-39
2022/09/06 03:22:38;;;;;;;1.48;1.35;;;;;;;11.81;71.94;94106.94;5027108;28;20025;-39
2022/09/06 03:25:04;;;;;;;1.48;1.20;;;;;;;11.68;72.15;94104.25;5026590;28;20022;-39
2022/09/06 03:27:29;;;;;;;2.20;1.40;;;;;;;11.57;72.97;94102.47;5026462;28;20510;-39
2022/09/06 03:29:55;;;;;;;1.95;1.77;;;;;;;11.55;72.66;94107.06;5026947;28;20059;-38
2022/09/06 03:32:20;;;;;;;2.38;1.55;;;;;;;11.48;73.18;94110.53;5040311;28;20021;-39
2022/09/06 03:34:46;;;;;;;2.03;1.67;;;;;;;11.53;72.47;94110.38;5048593;28;20020;-38
2022/09/06 03:37:11;;;;;;;1.77;1.67;;;;;;;11.26;73.21;94122.84;5049690;28;20037;-38
2022/09/06 03:39:37;;;;;;;2.00;1.73;;;;;;;11.33;73.38;94111.84;5048844;28;20409;-39
2022/09/06 03:42:02;;;;;;;2.13;1.67;;;;;;;11.49;72.86;94120.28;5039886;28;20025;-37
2022/09/06 03:44:28;;;;;;;1.73;1.35;;;;;;;11.56;72.33;94123.13;5035491;28;20036;-38
2022/09/06 03:46:53;;;;;;;1.92;1.42;;;;;;;11.62;72.46;94123.75;5049559;28;20025;-38
2022/09/06 03:49:19;;;;;;;2.45;1.88;;;;;;;11.52;72.84;94127.50;5032903;28;20033;-38
2022/09/06 03:51:44;;;;;;;2.38;1.73;;;;;;;11.49;73.20;94120.28;5029526;28;20499;-38
2022/09/06 03:54:10;;;;;;;2.65;1.95;;;;;;;11.42;73.56;94121.69;5046948;28;20086;-38
2022/09/06 03:56:35;;;;;;;1.75;1.60;;;;;;;11.25;73.67;94115.81;5049534;28;20029;-39
2022/09/06 03:59:00;;;;;;;2.28;1.70;;;;;;;11.26;73.68;94136.66;5048239;28;20033;-40
2022/09/06 04:01:26;;;;;;;2.90;1.77;;;;;;;11.13;73.34;94112.53;5049397;28;20025;-39
2022/09/06 04:03:52;;;;;;;1.67;1.58;;;;;;;11.17;73.17;94132.31;5049411;28;20039;-39
2022/09/06 04:06:17;;;;;;;2.20;1.80;;;;;;;11.40;72.00;94135.31;5049004;28;20064;-38
2022/09/06 04:08:43;;;;;;;1.90;1.52;;;;;;;11.31;72.48;94130.25;5049302;28;20448;-39
2022/09/06 04:11:09;;;;;;;2.03;1.40;;;;;;;11.29;72.65;94130.03;5049338;28;20033;-38
2022/09/06 04:13:34;;;;;;;1.50;1.40;;;;;;;11.37;72.56;94139.88;5049132;28;20104;-37
2022/09/06 04:16:00;;;;;;;1.65;1.55;;;;;;;11.17;73.33;94129.56;5047962;28;20029;-38
2022/09/06 04:18:26;;;;;;;1.20;1.20;;;;;;;11.29;72.50;94135.56;5049171;28;20103;-37
2022/09/06 04:20:54;;;;;;;2.53;1.70;;;;;;;11.04;73.57;94129.59;5034783;28;20029;-37
2022/09/06 04:23:20;;;;;;;2.47;1.75;;;;;;;11.13;73.50;94128.41;5029480;28;20040;-38
2022/09/06 04:25:50;;;;;;;1.73;1.45;;;;;;;11.12;73.35;94122.13;5029064;28;20030;-38
2022/09/06 04:28:17;;;;;;;2.28;1.77;;;;;;;11.21;72.73;94126.47;5029381;28;20030;-38
2022/09/06 04:30:52;;;;;;;1.50;1.40;;;;;;;11.02;72.82;94112.06;5041668;28;20052;-38
2022/09/06 04:33:19;;;;;;;1.50;1.40;;;;;;;11.18;73.12;94119.22;5049024;28;20447;-38
2022/09/06 04:35:56;;;;;;;2.28;1.92;;;;;;;11.16;73.26;94130.06;5048312;28;20078;-38
2022/09/06 04:38:23;;;;;;;2.42;1.90;;;;;;;11.15;72.81;94118.28;5047884;28;20064;-38
2022/09/06 04:40:48;;;;;;;2.33;1.63;;;;;;;11.17;72.77;94131.56;5048869;28;20025;-38
2022/09/06 04:43:14;;;;;;;2.30;1.70;;;;;;;11.22;72.22;94125.16;5045685;28;20024;-38
2022/09/06 04:45:40;;;;;;;2.47;1.42;;;;;;;11.18;72.39;94119.22;5048716;28;20499;-39
2022/09/06 04:48:06;;;;;;;1.40;1.08;;;;;;;11.23;72.52;94121.13;5048486;28;20025;-38
2022/09/06 04:50:31;;;;;;;1.95;1.55;;;;;;;11.32;72.17;94121.44;5045985;28;20090;-39
2022/09/06 04:52:57;;;;;;;2.60;2.00;;;;;;;11.27;72.74;94119.53;5048845;28;20029;-39
2022/09/06 04:55:22;;;;;;;1.70;1.60;;;;;;;11.16;73.77;94121.78;5038949;28;20505;-40
2022/09/06 04:57:47;;;;;;;2.45;1.95;;;;;;;11.19;73.86;94121.47;5044573;28;20036;-39
2022/09/06 05:00:13;;;;;;;2.33;2.00;;;;;;;11.20;74.14;94113.91;5039487;28;20021;-38
2022/09/06 05:02:38;;;;;;;2.47;1.75;;;;;;;11.26;74.08;94114.53;5042258;28;20498;-38
2022/09/06 05:05:04;;;;;;;2.58;1.90;;;;;;;11.31;74.33;94108.88;5037385;28;20021;-38
2022/09/06 05:07:30;;;;;;;1.80;1.70;;;;;;;11.39;74.32;94111.72;5039177;28;20031;-39
2022/09/06 05:09:55;;;;;;;2.58;1.80;;;;;;;11.32;75.03;94107.59;5040020;28;20033;-38
2022/09/06 05:12:21;;;;;;;2.60;1.98;;;;;;;11.35;75.77;94098.22;5047194;28;20017;-37
2022/09/06 05:14:46;;;;;;;2.00;1.85;;;;;;;11.39;76.31;94106.19;5032067;28;20313;-38
2022/09/06 05:17:13;;;;;;;2.00;1.88;;;;;;;11.35;76.80;94105.75;5028601;28;20454;-37
2022/09/06 05:19:39;;;;;;;3.47;2.25;;;;;;;11.48;77.30;94105.72;5028639;28;20029;-37
2022/09/06 05:22:05;;;;;;;1.77;1.42;;;;;;;11.65;77.05;94108.81;5028223;28;20030;-38
2022/09/06 05:24:30;;;;;;;2.63;1.95;;;;;;;11.77;77.32;94112.84;5046192;28;20089;-38
2022/09/06 05:26:56;;;;;;;1.98;1.55;;;;;;;11.80;77.77;94105.47;5048051;28;20020;-38
2022/09/06 05:29:21;;;;;;;2.17;1.95;;;;;;;11.76;79.59;94105.09;5048370;28;20029;-38
2022/09/06 05:31:46;;;;;;;2.00;1.80;;;;;;;11.86;79.56;94106.09;5048312;28;20017;-38
2022/09/06 05:34:13;;;;;;;1.80;1.70;;;;;;;11.91;80.24;94117.00;5047568;28;20021;-38
2022/09/06 05:36:40;;;;;;;2.70;1.75;;;;;;;12.08;80.90;94120.09;5047760;28;20127;-38
2022/09/06 05:39:06;;;;;;;1.70;1.60;;;;;;;12.26;80.57;94112.09;5042256;28;20113;-38
2022/09/06 05:41:32;;;;;;;1.60;1.50;;;;;;;12.48;80.43;94112.22;5037818;28;20107;-38
2022/09/06 05:43:58;;;;;;;1.90;1.70;;;;;;;12.60;79.79;94105.13;5030407;28;20033;-38
2022/09/06 05:46:25;;;;;;;2.35;1.65;;;;;;;12.67;80.03;94107.16;5035602;28;20040;-38
2022/09/06 05:48:54;;;;;;;1.67;1.40;;;;;;;12.78;80.49;94103.31;5043725;28;20104;-39
2022/09/06 05:51:20;;;;;;;4.40;1.80;;;;;;;12.72;80.45;94084.09;5036527;28;20048;-39
2022/09/06 05:53:46;;;;;;;3.15;2.08;;;;;;;13.05;80.59;94106.63;5041291;28;20441;-39
2022/09/06 05:56:13;;;;;;;4.07;1.77;;;;;;;13.16;79.98;94101.50;5039991;28;20022;-41
2022/09/06 05:58:39;;;;;;;3.95;2.10;;;;;;;13.14;79.56;94081.16;5044029;28;20113;-41
2022/09/06 06:01:04;;;;;;;1.90;1.80;;;;;;;13.34;79.59;94094.16;5041170;28;20096;-41
2022/09/06 06:03:30;;;;;;;2.13;1.67;;;;;;;13.47;79.34;94100.25;5042654;28;20037;-40
2022/09/06 06:05:55;;;;;;;2.17;1.98;;;;;;;13.52;79.51;94096.56;5045828;28;20032;-40
2022/09/06 06:08:21;;;;;;;3.72;2.08;;;;;;;13.61;79.34;94096.03;5042901;28;20029;-42
2022/09/06 06:10:46;;;;;;;2.35;2.10;;;;;;;13.74;78.74;94089.56;5046223;28;20086;-39
2022/09/06 06:13:11;;;;;;;1.83;1.67;;;;;;;13.86;78.59;94093.44;5046127;28;20493;-39
2022/09/06 06:15:37;;;;;;;4.57;1.95;;;;;;;14.01;78.40;94095.50;5042290;28;20025;-40
2022/09/06 06:18:02;;;;;;;2.05;1.65;;;;;;;14.18;78.28;94090.88;5026540;28;20452;-39
2022/09/06 06:20:28;;;;;;;2.10;1.92;;;;;;;14.38;77.38;94080.84;5026494;28;20098;-41
2022/09/06 06:22:53;;;;;;;2.00;1.80;;;;;;;14.80;76.17;94084.63;5035539;28;20056;-39
2022/09/06 06:25:24;;;;;;;2.80;2.10;;;;;;;15.13;74.88;94077.09;5034356;28;20029;-40
2022/09/06 06:27:51;;;;;;;2.35;2.13;;;;;;;15.44;73.72;94084.00;5034646;28;20029;-39
2022/09/06 06:30:16;;;;;;;2.42;2.22;;;;;;;15.60;71.47;94081.84;5037108;28;20044;-39
2022/09/06 06:32:42;;;;;;;2.17;1.98;;;;;;;15.58;71.76;94082.44;5036197;28;20018;-39
2022/09/06 06:35:08;;;;;;;2.80;2.30;;;;;;;15.67;71.66;94075.50;5032975;28;20029;-40
2022/09/06 06:37:33;;;;;;;2.13;1.92;;;;;;;15.75;71.83;94082.50;5024821;28;20045;-40
2022/09/06 06:39:59;;;;;;;2.92;1.95;;;;;;;15.68;72.80;94071.44;5027738;28;20021;-39
2022/09/06 06:42:24;;;;;;;2.00;1.80;;;;;;;15.72;73.07;94074.56;5032090;28;20033;-39
2022/09/06 06:44:52;;;;;;;2.47;1.80;;;;;;;15.82;73.29;94075.41;5035095;28;20480;-40
2022/09/06 06:47:20;;;;;;;3.25;1.58;;;;;;;15.97;72.55;94078.06;5043262;28;20032;-39
2022/09/06 06:49:47;;;;;;;1.67;1.58;;;;;;;16.13;71.80;94076.63;5043458;28;20550;-39
2022/09/06 06:52:12;;;;;;;2.80;1.90;;;;;;;16.23;71.93;94073.94;5026215;28;20043;-39
2022/09/06 06:54:38;;;;;;;1.83;1.73;;;;;;;16.36;70.97;94076.41;5037751;28;20037;-39
2022/09/06 06:57:04;;;;;;;2.17;1.90;;;;;;;16.43;71.77;94076.38;5043462;28;20025;-40
2022/09/06 06:59:30;;;;;;;2.28;2.10;;;;;;;16.60;70.84;94081.97;5040658;28;20116;-40
2022/09/06 07:01:55;;;;;;;2.13;1.98;;;;;;;16.76;70.66;94079.78;5035088;28;20393;-39
2022/09/06 07:04:21;;;;;;;2.38;2.05;;;;;;;17.03;70.46;94071.44;5042835;28;20028;-40
2022/09/06 07:06:51;;;;;;;3.30;2.35;;;;;;;17.33;69.88;94079.44;5039220;28;20032;-40
2022/09/06 07:09:18;;;;;;;3.25;1.95;;;;;;;17.82;67.79;94073.56;5035898;28;20040;-40
2022/09/06 07:11:44;;;;;;;1.55;1.45;;;;;;;18.18;65.63;94065.16;5041857;28;20907;-40
2022/09/06 07:14:10;;;;;;;1.25;1.15;;;;;;;19.16;60.60;94068.25;5046640;28;20209;-40
2022/09/06 07:16:35;;;;;;;1.10;1.00;;;;;;;19.95;59.43;94071.75;5043063;28;20066;-39
2022/09/06 07:19:01;;;;;;;1.77;1.60;;;;;;;21.10;53.99;94069.06;5042021;28;20025;-44
2022/09/06 07:21:26;;;;;;;1.77;1.63;;;;;;;21.97;52.00;94073.84;5046633;28;20039;-40
2022/09/06 07:23:53;;;;;;;1.75;1.65;;;;;;;22.61;48.38;94072.16;5046966;28;20031;-41
2022/09/06 07:26:21;;;;;;;1.70;1.50;;;;;;;23.13;45.89;94080.13;5041372;28;20112;-43
2022/09/06 07:28:47;;;;;;;1.27;1.20;;;;;;;23.68;46.25;94064.22;5033132;28;20460;-39
2022/09/06 07:31:13;;;;;;;1.02;1.02;;;;;;;24.01;44.13;94070.28;5035665;28;20013;-43
2022/09/06 07:33:38;;;;;;;1.40;1.30;;;;;;;23.93;44.39;94076.22;5040203;28;20028;-43
2022/09/06 07:36:06;;;;;;;1.00;0.93;;;;;;;24.44;42.51;94067.66;5036108;28;20528;-41
2022/09/06 07:39:15;;;;;;;1.13;1.10;;;;;;;24.56;42.37;94071.13;5035208;28;20029;-42
2022/09/06 07:41:42;;;;;;;1.25;1.15;;;;;;;24.62;42.90;94077.09;5037920;28;20696;-43
2022/09/06 07:44:07;;;;;;;1.80;1.70;;;;;;;24.50;43.42;94079.25;5039954;28;20534;-43
2022/09/06 07:46:33;;;;;;;2.15;1.52;;;;;;;25.13;42.71;94072.66;5038071;28;20112;-42
2022/09/06 07:48:58;;;;;;;1.75;1.65;;;;;;;26.09;41.50;94073.09;5040754;28;20029;-42
2022/09/06 07:51:24;;;;;;;1.90;1.40;;;;;;;26.41;40.07;94083.06;5037465;28;20116;-41
2022/09/06 07:53:51;;;;;;;2.33;1.67;;;;;;;26.60;38.14;94078.94;5036732;28;20075;-43
2022/09/06 07:56:18;;;;;;;1.42;1.33;;;;;;;27.11;38.47;94070.56;5036872;28;20100;-36
2022/09/06 07:58:44;;;;;;;1.50;1.40;;;;;;;26.13;39.03;94074.03;5034186;28;20029;-35
2022/09/06 08:01:27;;;;;;;1.63;1.52;;;;;;;27.01;38.41;94071.59;5034776;28;20800;-35
2022/09/06 08:03:53;;;;;;;2.85;2.00;;;;;;;27.80;37.64;94069.19;5033706;28;20112;-35
2022/09/06 08:06:21;;;;;;;1.20;1.10;;;;;;;28.83;36.00;94075.97;5031908;28;20016;-35
2022/09/06 08:08:46;;;;;;;1.60;1.37;;;;;;;29.67;33.71;94061.13;5035737;28;20033;-34
2022/09/06 08:11:12;;;;;;;0.90;0.90;;;;;;;30.09;32.93;94067.44;5040992;27;20142;-33
2022/09/06 08:13:37;;;;;;;1.52;1.27;;;;;;;30.98;32.02;94062.28;5066688;27;20021;-33
2022/09/06 08:16:08;;;;;;;0.95;0.90;;;;;;;30.58;30.38;94073.97;5043185;27;20056;-33
2022/09/06 08:18:34;;;;;;;1.38;1.30;;;;;;;30.81;30.30;94060.34;5050933;27;20130;-33
2022/09/06 08:21:14;;;;;;;1.23;1.10;;;;;;;30.83;31.72;94063.25;5030285;28;20051;-33
2022/09/06 08:23:43;;;;;;;1.70;1.23;;;;;;;31.18;30.99;94060.72;5040867;28;20505;-34
2022/09/06 08:26:09;;;;;;;1.17;1.08;;;;;;;32.47;29.44;94061.06;5034596;28;20111;-34
2022/09/06 08:28:34;;;;;;;0.98;0.77;;;;;;;33.19;26.63;94053.25;5054341;27;20116;-33
2022/09/06 08:31:16;;;;;;;1.23;1.05;;;;;;;33.46;27.20;94057.34;5033703;28;20573;-33
2022/09/06 08:33:43;;;;;;;1.35;1.23;;;;;;;33.44;28.04;94063.03;5033968;28;20498;-35
2022/09/06 08:36:09;;;;;;;1.30;1.15;;;;;;;34.24;26.98;94052.94;5033831;27;20052;-35
2022/09/06 08:38:35;;;;;;;1.77;1.10;;;;;;;35.31;25.42;94054.34;5033302;28;20038;-35
2022/09/06 08:41:15;;;;;;;2.08;1.98;;;;;;;35.02;24.23;94052.59;5055277;27;20676;-34
2022/09/06 08:43:53;;;;;;;1.80;1.20;;;;;;;35.34;24.40;94037.88;5034444;28;20618;-35
2022/09/06 08:46:26;;;;;;;18.57;4.43;;;;;;;35.31;23.43;94045.72;5036806;28;20047;-34
2022/09/06 08:48:51;;;;;;;1.75;1.50;;;;;;;34.61;25.50;94042.00;5034008;28;20395;-35
2022/09/06 08:51:36;;;;;;;0.82;0.80;;;;;;;35.33;24.37;94047.91;5035521;28;20028;-34
2022/09/06 08:54:21;;;;;;;0.82;0.82;;;;;;;35.14;24.25;94040.50;5031489;28;20077;-35
2022/09/06 08:57:03;;;;;;;1.52;1.20;;;;;;;35.60;24.73;94036.00;5032861;28;20813;-34
2022/09/06 08:59:35;;;;;;;1.27;0.75;;;;;;;36.40;24.01;94033.06;5033529;28;20021;-34
2022/09/06 09:02:17;;;;;;;1.02;0.95;;;;;;;36.65;23.07;94033.19;5035549;28;20684;-35
2022/09/06 09:04:54;;;;;;;0.82;0.75;;;;;;;35.90;22.61;94031.94;5035456;28;20024;-34
2022/09/06 09:07:39;;;;;;;1.10;0.80;;;;;;;35.39;23.42;94028.56;5034513;28;20861;-35
2022/09/06 09:10:10;;;;;;;0.73;0.73;;;;;;;35.86;23.65;94015.41;5033782;28;20042;-35
2022/09/06 09:12:44;;;;;;;0.80;0.80;;;;;;;36.30;23.33;94024.34;5032413;28;20021;-35
2022/09/06 09:15:12;;;;;;;0.90;0.90;;;;;;;35.79;22.93;94017.50;5032973;28;20036;-34
2022/09/06 09:17:38;;;;;;;;;;;;;;;35.71;21.58;94013.84;5033708;28;20101;-35
2022/09/06 09:20:07;;;;;;;1.20;1.10;;;;;;;36.27;21.73;94005.66;5042608;27;19964;-37
2022/09/06 09:22:32;;;;;;;1.13;0.75;;;;;;;36.51;21.85;94013.72;5043499;27;20444;-37
2022/09/06 09:24:59;;;;;;;0.80;0.70;;;;;;;37.30;21.31;94008.25;5037512;28;20078;-35
2022/09/06 09:27:26;;;;;;;4.65;0.80;;;;;;;37.86;18.20;93993.97;5032858;28;20048;-37
2022/09/06 09:29:54;;;;;;;0.90;0.70;;;;;;;38.03;20.90;93988.94;5032596;28;20028;-53
2022/09/06 09:32:34;;;;;;;2.30;1.00;;;;;;;38.21;20.05;93983.84;5033921;28;20032;-40
2022/09/06 09:35:30;;;;;;;1.38;1.27;;;;;;;37.71;20.02;93984.56;5036622;28;20017;-41
2022/09/06 09:38:08;;;;;;;1.20;1.08;;;;;;;37.34;20.06;93985.25;5032586;28;20057;-44
2022/09/06 09:41:00;;;;;;;0.95;0.90;;;;;;;37.27;21.61;93984.53;5032627;28;20094;-41
2022/09/06 09:43:31;;;;;;;1.85;1.20;;;;;;;37.05;21.15;93978.72;5033573;28;20034;-42
2022/09/06 09:46:13;;;;;;;1.35;1.17;;;;;;;37.34;19.46;93980.19;5033309;28;20021;-41
2022/09/06 09:48:40;;;;;;;1.05;0.85;;;;;;;37.63;20.64;93978.09;5035735;28;20571;-43
2022/09/06 09:51:19;;;;;;;1.17;1.00;;;;;;;36.69;20.26;93982.13;5032957;28;20028;-41
2022/09/06 09:53:52;;;;;;;5.05;1.33;;;;;;;35.92;21.54;93980.94;5033509;28;20021;-42
2022/09/06 09:56:29;;;;;;;2.95;0.80;;;;;;;34.60;22.97;93977.44;5033083;28;20025;-40
2022/09/06 09:58:56;;;;;;;1.13;0.90;;;;;;;33.08;25.46;93979.34;5034672;28;20060;-43
2022/09/06 10:01:25;;;;;;;1.30;1.20;;;;;;;31.75;27.00;93985.09;5032659;28;20021;-42
2022/09/06 10:03:51;;;;;;;1.23;1.13;;;;;;;30.79;29.47;93983.31;5032000;28;20664;-41
2022/09/06 10:06:24;;;;;;;0.95;0.85;;;;;;;29.79;32.65;93982.56;5033591;28;20032;-43
2022/09/06 10:08:50;;;;;;;1.77;0.98;;;;;;;28.98;31.55;93976.31;5033959;28;20036;-42
2022/09/06 10:11:36;;;;;;;1.55;1.15;;;;;;;28.42;32.22;93977.16;5034941;28;20072;-42
2022/09/06 10:14:31;;;;;;;1.25;1.10;;;;;;;27.58;36.32;93983.94;5034970;28;20497;-41
2022/09/06 10:16:58;;;;;;;1.13;1.02;;;;;;;27.09;36.90;93976.94;5036276;28;20021;-41
2022/09/06 10:19:45;;;;;;;1.52;1.08;;;;;;;26.51;37.88;93961.03;5032571;28;20086;-42
2022/09/06 10:22:18;;;;;;;1.08;0.98;;;;;;;26.35;38.32;93972.38;5036362;28;20112;-43
2022/09/06 10:25:25;;;;;;;1.63;1.30;;;;;;;26.00;39.94;93975.75;5036307;28;20081;-43
2022/09/06 10:28:19;;;;;;;0.95;0.95;;;;;;;25.75;39.45;93973.16;5034314;28;20113;-41
2022/09/06 10:31:15;;;;;;;1.20;1.08;;;;;;;25.60;39.89;93964.69;5036173;28;20529;-42
2022/09/06 10:34:02;;;;;;;1.30;1.20;;;;;;;25.63;40.21;93971.88;5038570;28;20062;-42
2022/09/06 10:36:39;;;;;;;1.30;1.15;;;;;;;25.58;39.26;93973.09;5034674;28;20073;-44
2022/09/06 10:39:38;;;;;;;1.17;1.10;;;;;;;25.50;39.17;93976.25;5034255;28;20529;-41
2022/09/06 10:42:06;;;;;;;1.20;1.10;;;;;;;25.61;39.87;93972.53;5034249;28;20513;-42
2022/09/06 10:44:44;;;;;;;1.35;1.25;;;;;;;26.50;39.79;93971.63;5038408;28;20037;-42
2022/09/06 10:47:13;;;;;;;0.85;0.85;;;;;;;28.51;36.09;93965.44;5037054;28;20096;-45
2022/09/06 10:49:43;;;;;;;2.88;1.27;;;;;;;30.04;31.37;93955.53;5036477;28;20040;-43
2022/09/06 10:52:12;;;;;;;2.08;0.80;;;;;;;30.73;31.36;93964.66;5039600;28;20115;-44
2022/09/06 10:54:40;;;;;;;1.02;0.85;;;;;;;31.15;26.18;93962.22;5039942;28;20028;-47
2022/09/06 10:57:37;;;;;;;0.87;0.87;;;;;;;32.00;26.56;93956.44;5041280;28;20523;-44
2022/09/06 11:00:11;;;;;;;0.77;0.77;;;;;;;31.57;24.75;93953.25;5053806;28;20036;-44
2022/09/06 11:02:54;;;;;;;0.65;0.65;;;;;;;30.21;27.02;93948.94;5036742;28;20086;-41
2022/09/06 11:05:25;;;;;;;0.98;0.90;;;;;;;29.45;28.37;93950.16;5038951;28;20028;-41
2022/09/06 11:07:54;;;;;;;0.93;0.80;;;;;;;28.64;29.37;93954.53;5044311;27;20045;-41
2022/09/06 11:10:36;;;;;;;0.77;0.70;;;;;;;28.13;30.29;93958.34;5030076;28;20048;-40
2022/09/06 11:13:18;;;;;;;0.85;0.60;;;;;;;27.65;31.63;93951.59;5039101;28;20017;-41
2022/09/06 11:15:46;;;;;;;1.17;1.05;;;;;;;26.95;30.98;93949.47;5036276;28;20722;-40
2022/09/06 11:18:27;;;;;;;1.60;1.05;;;;;;;26.62;33.14;93952.28;5039096;28;20409;-40
2022/09/06 11:21:26;;;;;;;0.68;0.68;;;;;;;26.34;33.64;93953.91;5033479;28;20497;-41
2022/09/06 11:24:14;;;;;;;1.05;0.95;;;;;;;25.94;33.03;93955.69;5033239;28;20081;-42
2022/09/06 11:27:06;;;;;;;0.82;0.70;;;;;;;25.69;33.48;93953.09;5035214;28;20116;-41
2022/09/06 11:29:33;;;;;;;1.08;0.70;;;;;;;25.65;34.35;93955.75;5039748;28;20033;-40
2022/09/06 11:32:03;;;;;;;0.60;0.60;;;;;;;25.53;33.60;93958.03;5035685;28;20030;-40
2022/09/06 11:34:33;;;;;;;0.70;0.70;;;;;;;25.47;35.23;93947.16;5037306;28;20029;-43
2022/09/06 11:37:05;;;;;;;0.55;0.55;;;;;;;25.48;36.24;93942.97;5028924;28;20072;-40
2022/09/06 11:39:35;;;;;;;1.35;0.80;;;;;;;25.58;36.64;93953.28;5042673;28;20085;-40
2022/09/06 11:42:01;;;;;;;0.68;0.30;;;;;;;25.46;36.63;93948.53;5041182;27;20082;-45
2022/09/06 11:44:48;;;;;;;0.68;0.60;;;;;;;25.44;35.64;93942.78;5038557;28;20029;-40
2022/09/06 11:47:50;;;;;;;0.75;0.75;;;;;;;25.45;36.54;93943.50;5038515;28;20108;-40
2022/09/06 11:50:19;;;;;;;0.60;0.60;;;;;;;25.36;36.50;93941.66;4975766;28;20416;-39